Terminal Aerodrome Forecast
Issued by NWS Memphis, TN

Home | Current Version | Previous Version | Text Only | Print | Product List | Glossary On
Versions: 1 2 3 4 5 6 7 8 9 10 11 12 13
000
FTUS44 KMEG 051129 CCA
TAFJBR
TAF COR
KJBR 051129Z 0512/0612 VRB02KT P6SM SCT250
     FM051500 12007KT P6SM SCT045
     FM060000 VRB02KT P6SM SCT250
      TEMPO 0610/0612 5SM BR=

USA.gov is the U.S. government's official web portal to all federal, state and local government web resources and services.